Terminal Aerodrome Forecast
Issued by NWS

Home | Current Version | Previous Version | Text Only | Print | Product List | Glossary On
Versions: 1 2 3 4 5 6 7 8 9 10 11 12 13
000
FTUS46 KSGX 312300
TAFCRQ
TAF
KCRQ 312332Z 0100/0124 26008KT P6SM FEW025 BKN150
     FM010900 VRB06KT 6SM BR SCT012 BKN250
     FM011500 VRB05KT P6SM FEW012 BKN250=

USA.gov is the U.S. government's official web portal to all federal, state and local government web resources and services.